Andover, OH

1:06 AM EST on February 27, 2015 (GMT -0500)
Roaming Shores - Beach 2 Cove | Change Station
CLOSE
Current Station
Personal Weather Station
Location: Roaming Shores, OH
Elevation: 883 ft
Nearby Weather Stations

Elev 883 ft 41.63 °N, 80.82 °W | Updated 31 seconds ago

Overcast
Overcast
3.9 °F
Feels Like 4 °F
N
2.0
Wind Variable Wind from West
Gusts 2.0 mph

Today
High -- | Low -- °F
--% Chance of Precip.
Yesterday
High -- | Low -- °F
Precip. -- in
7:00 AM 6:10 PM
Waxing Gibbous, 66% visible
Pressure 30.35 in
Visibility 10.0 miles
Clouds Overcast 2900 ft
Windchill 4 °F
Dew Point 2 °F
Humidity 92%
Rainfall 0.00 in
Snow Depth Not available.
UV 0 out of 12
Pollen .40 out of 12
Air Quality Not available.
Flu Activity Not available.
METAR KHZY 270553Z AUTO 32003KT 10SM OVC029 M16/M18 A3029 RMK AO2 SLP277 60000 T11561183 11133 21156 51015

More Conditions Fewer Conditions

Pressure 30.35 in
Visibility 10.0 miles
Clouds Overcast 2900 ft
Windchill 4 °F
Dew Point 2 °F
Humidity 92%
Rainfall 0.00 in
Snow Depth Not available.
UV 0 out of 12
Pollen .40 out of 12
Air Quality Not available.
Flu Activity Not available.
METAR KHZY 270553Z AUTO 32003KT 10SM OVC029 M16/M18 A3029 RMK AO2 SLP277 60000 T11561183 11133 21156 51015

More Conditions Fewer Conditions

10-Day Weather Forecast

Almanac

Astronomy

Feb. 27, 2015 Rise Set
Actual Time
Civil Twilight
Nautical Twilight
Astronomical Twilight
Moon
Length of Visible Light
Length of Day
Tomorrow will be .
, % of the Moon is Illuminated

Today's Extremes

State Highs State Lows

Community

WunderPhotos

Upload Photos

1,800,643 photos uploaded!

WunderBlogs® & News

Nearby

Air Quality

  Air Quality AQ Index Pollutant
Not available.

Snow Depth

Station Depth Elevation

Earthquake Activity

City Distance Mag. Time & Date
Minimum magnitude displayed is 2.5.

Coastal Water Temperatures

Place Temperature

Nearby Weather Stations